Time;durP1;ratioP1;P1;durP2;ratioP2;P2;SDS_P1;SDS_P2;PMS_P1;PMS_P2;Temp;Humidity;BMP_temperature;BMP_pressure;BME280_temperature;BME280_humidity;BME280_pressure;Samples;Min_cycle;Max_cycle;Signal;HPM_P1;HPM_P2
2022/09/24 00:00:31;;;;;;;458.95;271.58;;;;;;;;;;5093140;28;20063;-66
2022/09/24 00:02:57;;;;;;;450.33;268.05;;;;;;;;;;5093253;28;20032;-66
2022/09/24 00:05:23;;;;;;;465.98;275.67;;;;;;;;;;5092673;28;20043;-67
2022/09/24 00:07:49;;;;;;;478.48;281.80;;;;;;;;;;5093105;28;20094;-66
2022/09/24 00:10:16;;;;;;;496.38;288.67;;;;;;;;;;5092781;28;20107;-66
2022/09/24 00:12:42;;;;;;;500.45;291.67;;;;;;;;;;5095997;28;20032;-66
2022/09/24 00:15:08;;;;;;;514.55;294.55;;;;;;;;;;5096882;28;20039;-66
2022/09/24 00:17:34;;;;;;;506.63;294.10;;;;;;;;;;5096800;28;20472;-66
2022/09/24 00:20:00;;;;;;;474.10;278.70;;;;;;;;;;5096855;28;20028;-66
2022/09/24 00:22:26;;;;;;;486.38;285.63;;;;;;;;;;5095532;28;20032;-66
2022/09/24 00:27:37;;;;;;;471.25;279.67;;;;;;;;;;5096736;28;20046;-66
2022/09/24 00:30:03;;;;;;;453.38;267.35;;;;;;;;;;5096645;28;20020;-66
2022/09/24 00:32:29;;;;;;;445.92;267.35;;;;;;;;;;5096306;28;20020;-66
2022/09/24 00:34:55;;;;;;;473.25;279.83;;;;;;;;;;5096795;28;20024;-66
2022/09/24 00:37:21;;;;;;;463.63;277.20;;;;;;;;;;5096805;28;20031;-66
2022/09/24 00:39:48;;;;;;;460.08;274.45;;;;;;;;;;5096010;28;20062;-66
2022/09/24 00:42:14;;;;;;;472.25;279.77;;;;;;;;;;5095119;28;20450;-66
2022/09/24 00:44:40;;;;;;;477.30;283.80;;;;;;;;;;5096260;28;20446;-66
2022/09/24 00:47:11;;;;;;;471.00;279.02;;;;;;;;;;5095999;28;20028;-66
2022/09/24 00:49:38;;;;;;;471.83;278.23;;;;;;;;;;5096902;28;20099;-66
2022/09/24 00:52:04;;;;;;;463.10;272.65;;;;;;;;;;5096221;28;20470;-66
2022/09/24 00:54:31;;;;;;;461.15;275.15;;;;;;;;;;5095752;28;20035;-66
2022/09/24 00:56:58;;;;;;;452.70;264.70;;;;;;;;;;5096223;28;20020;-66
2022/09/24 00:59:24;;;;;;;448.35;267.60;;;;;;;;;;5095691;28;20474;-66
2022/09/24 01:01:52;;;;;;;444.45;264.52;;;;;;;;;;5096234;28;20024;-66
2022/09/24 01:04:20;;;;;;;447.23;267.75;;;;;;;;;;5095952;28;20116;-66
2022/09/24 01:06:47;;;;;;;442.38;265.70;;;;;;;;;;5094294;28;20032;-66
2022/09/24 01:09:13;;;;;;;438.90;265.95;;;;;;;;;;5095949;28;20039;-66
2022/09/24 01:11:42;;;;;;;438.50;263.20;;;;;;;;;;5095845;28;20099;-66
2022/09/24 01:14:10;;;;;;;426.92;254.40;;;;;;;;;;5094120;28;20050;-66
2022/09/24 01:16:48;;;;;;;439.35;264.48;;;;;;;;;;5096094;28;20048;-66
2022/09/24 01:19:14;;;;;;;446.15;268.50;;;;;;;;;;5095648;28;20024;-66
2022/09/24 01:21:49;;;;;;;431.83;260.30;;;;;;;;;;5095296;28;20052;-66
2022/09/24 01:24:15;;;;;;;430.23;257.73;;;;;;;;;;5095268;28;20024;-66
2022/09/24 01:26:44;;;;;;;428.02;255.57;;;;;;;;;;5095835;28;20085;-65
2022/09/24 01:29:26;;;;;;;436.13;261.52;;;;;;;;;;5095301;28;20021;-66
2022/09/24 01:32:04;;;;;;;436.70;266.85;;;;;;;;;;5094135;28;20028;-66
2022/09/24 01:34:36;;;;;;;432.23;261.77;;;;;;;;;;5093761;28;20028;-66
2022/09/24 01:37:02;;;;;;;419.98;250.68;;;;;;;;;;5095415;28;20463;-66
2022/09/24 01:39:30;;;;;;;437.05;262.63;;;;;;;;;;5095307;28;20024;-66
2022/09/24 01:41:56;;;;;;;448.00;267.10;;;;;;;;;;5094839;28;20024;-66
2022/09/24 01:44:22;;;;;;;434.48;260.58;;;;;;;;;;5095143;28;20039;-66
2022/09/24 01:46:49;;;;;;;425.45;259.60;;;;;;;;;;5095077;28;20176;-66
2022/09/24 01:49:15;;;;;;;419.63;254.43;;;;;;;;;;5094788;28;20138;-66
2022/09/24 01:51:43;;;;;;;415.13;251.50;;;;;;;;;;5093772;28;20055;-66
2022/09/24 01:54:24;;;;;;;407.38;250.27;;;;;;;;;;5095024;28;20020;-66
2022/09/24 01:56:52;;;;;;;415.98;254.70;;;;;;;;;;5094697;28;20056;-66
2022/09/24 01:59:56;;;;;;;417.85;255.50;;;;;;;;;;5094930;28;20027;-66
2022/09/24 02:02:27;;;;;;;415.80;254.60;;;;;;;;;;5032877;28;20034;-66
2022/09/24 02:04:58;;;;;;;434.70;263.10;;;;;;;;;;5032152;28;20030;-66
2022/09/24 02:07:38;;;;;;;416.33;253.43;;;;;;;;;;5066302;28;20043;-67
2022/09/24 02:10:05;;;;;;;416.92;250.00;;;;;;;;;;5094409;28;20073;-66
2022/09/24 02:12:40;;;;;;;424.05;259.10;;;;;;;;;;5094664;28;20107;-66
2022/09/24 02:15:16;;;;;;;434.40;263.20;;;;;;;;;;5094946;28;20024;-66
2022/09/24 02:17:44;;;;;;;428.98;260.20;;;;;;;;;;5092878;28;20507;-66
2022/09/24 02:20:13;;;;;;;421.10;253.93;;;;;;;;;;5093286;28;20475;-66
2022/09/24 02:22:41;;;;;;;410.63;250.98;;;;;;;;;;5094635;28;20054;-66
2022/09/24 02:25:09;;;;;;;412.77;253.48;;;;;;;;;;5093769;28;20048;-66
2022/09/24 02:27:35;;;;;;;414.88;252.70;;;;;;;;;;5094374;28;20016;-66
2022/09/24 02:30:02;;;;;;;386.02;237.60;;;;;;;;;;5094312;28;20487;-66
2022/09/24 02:32:30;;;;;;;395.88;244.70;;;;;;;;;;5092662;28;20356;-66
2022/09/24 02:37:59;;;;;;;404.20;247.70;;;;;;;;;;5093853;28;20387;-66
2022/09/24 02:40:25;;;;;;;367.25;228.20;;;;;;;;;;5094222;28;20024;-66
2022/09/24 02:42:52;;;;;;;443.42;266.65;;;;;;;;;;5093048;28;20028;-66
2022/09/24 02:45:18;;;;;;;429.35;257.50;;;;;;;;;;5093597;28;20055;-66
2022/09/24 02:47:44;;;;;;;386.95;240.40;;;;;;;;;;5094033;28;20024;-65
2022/09/24 02:50:10;;;;;;;332.58;220.88;;;;;;;;;;5094258;28;20039;-65
2022/09/24 02:52:36;;;;;;;321.27;219.18;;;;;;;;;;5093618;28;20031;-65
2022/09/24 02:55:02;;;;;;;306.63;212.07;;;;;;;;;;5093887;28;20024;-65
2022/09/24 02:57:28;;;;;;;296.92;208.93;;;;;;;;;;5093894;28;20035;-65
2022/09/24 02:59:54;;;;;;;327.10;218.57;;;;;;;;;;5093536;28;20030;-65
2022/09/24 03:02:21;;;;;;;350.85;227.07;;;;;;;;;;5093801;28;20044;-66
2022/09/24 03:04:47;;;;;;;337.42;220.30;;;;;;;;;;5094002;28;20468;-65
2022/09/24 03:07:13;;;;;;;351.40;226.63;;;;;;;;;;5093368;28;20119;-66
2022/09/24 03:09:40;;;;;;;354.95;227.18;;;;;;;;;;5093789;28;20529;-66
2022/09/24 03:12:06;;;;;;;364.33;230.98;;;;;;;;;;5093718;28;20438;-65
2022/09/24 03:14:32;;;;;;;362.30;228.50;;;;;;;;;;5093237;28;20095;-67
2022/09/24 03:16:58;;;;;;;359.85;227.93;;;;;;;;;;5092370;28;20032;-65
2022/09/24 03:19:24;;;;;;;361.67;229.23;;;;;;;;;;5093591;28;20031;-66
2022/09/24 03:21:50;;;;;;;350.52;223.38;;;;;;;;;;5093233;28;20391;-66
2022/09/24 03:24:16;;;;;;;355.50;228.93;;;;;;;;;;5093305;28;20035;-66
2022/09/24 03:26:44;;;;;;;352.42;227.25;;;;;;;;;;5093665;28;20032;-66
2022/09/24 03:29:10;;;;;;;350.38;227.75;;;;;;;;;;5093091;28;20507;-66
2022/09/24 03:31:36;;;;;;;343.80;224.00;;;;;;;;;;5093500;28;20032;-66
2022/09/24 03:34:02;;;;;;;334.67;222.98;;;;;;;;;;5093031;28;20411;-66
2022/09/24 03:36:28;;;;;;;329.73;221.48;;;;;;;;;;5093456;28;20468;-65
2022/09/24 03:38:56;;;;;;;337.58;223.38;;;;;;;;;;5093346;28;20035;-65
2022/09/24 03:41:23;;;;;;;339.27;222.80;;;;;;;;;;5092957;28;20031;-66
2022/09/24 03:43:50;;;;;;;346.50;225.60;;;;;;;;;;5093535;28;20025;-66
2022/09/24 03:46:16;;;;;;;348.45;225.85;;;;;;;;;;5093922;28;20043;-65
2022/09/24 03:48:42;;;;;;;341.67;219.73;;;;;;;;;;5097219;28;20383;-66
2022/09/24 03:51:12;;;;;;;349.52;225.43;;;;;;;;;;5096116;28;20369;-65
2022/09/24 03:53:38;;;;;;;352.85;226.63;;;;;;;;;;5097535;28;20028;-65
2022/09/24 03:56:05;;;;;;;352.42;225.98;;;;;;;;;;5097116;28;20020;-65
2022/09/24 03:58:35;;;;;;;351.95;224.73;;;;;;;;;;5095985;28;20032;-65
2022/09/24 04:01:01;;;;;;;355.10;227.40;;;;;;;;;;5097134;28;20053;-66
2022/09/24 04:03:27;;;;;;;356.33;228.75;;;;;;;;;;5095488;28;20034;-65
2022/09/24 04:05:53;;;;;;;351.50;225.05;;;;;;;;;;5095751;28;20177;-65
2022/09/24 04:08:20;;;;;;;350.08;225.88;;;;;;;;;;5097014;28;20070;-66
2022/09/24 04:10:47;;;;;;;355.55;227.50;;;;;;;;;;5096709;28;20032;-66
2022/09/24 04:13:14;;;;;;;351.27;224.88;;;;;;;;;;5095718;28;20028;-65
2022/09/24 04:15:40;;;;;;;354.15;226.70;;;;;;;;;;5097090;28;20055;-65
2022/09/24 04:18:06;;;;;;;352.42;224.23;;;;;;;;;;5095244;28;20035;-66
2022/09/24 04:20:33;;;;;;;356.27;225.57;;;;;;;;;;5096909;28;20475;-65
2022/09/24 04:22:59;;;;;;;367.20;231.27;;;;;;;;;;5096831;28;20460;-65
2022/09/24 04:25:27;;;;;;;402.33;245.93;;;;;;;;;;5096186;28;20403;-65
2022/09/24 04:27:57;;;;;;;406.35;246.15;;;;;;;;;;5096884;28;20042;-66
2022/09/24 04:30:24;;;;;;;407.30;247.07;;;;;;;;;;5096482;28;20099;-65
2022/09/24 04:32:50;;;;;;;408.20;248.05;;;;;;;;;;5096600;28;20111;-65
2022/09/24 04:35:20;;;;;;;407.20;247.50;;;;;;;;;;5096528;28;20153;-65
2022/09/24 04:37:47;;;;;;;406.45;246.70;;;;;;;;;;5096558;28;20028;-65
2022/09/24 04:40:14;;;;;;;408.83;248.55;;;;;;;;;;5095168;28;20032;-66
2022/09/24 04:42:41;;;;;;;405.17;245.35;;;;;;;;;;5096446;28;20026;-66
2022/09/24 04:45:08;;;;;;;407.85;249.00;;;;;;;;;;5094576;28;20031;-65
2022/09/24 04:47:35;;;;;;;401.55;243.65;;;;;;;;;;5096752;28;20109;-65
2022/09/24 04:50:01;;;;;;;407.80;248.68;;;;;;;;;;5096353;28;20024;-65
2022/09/24 04:52:30;;;;;;;401.85;243.85;;;;;;;;;;5095813;28;20024;-65
2022/09/24 04:54:56;;;;;;;397.83;240.32;;;;;;;;;;5096210;28;20378;-66
2022/09/24 04:57:23;;;;;;;402.83;244.77;;;;;;;;;;5095723;28;20032;-66
2022/09/24 04:59:49;;;;;;;398.58;241.80;;;;;;;;;;5094404;28;20475;-66
2022/09/24 05:02:16;;;;;;;403.65;246.20;;;;;;;;;;5096045;28;20028;-66
2022/09/24 05:04:42;;;;;;;404.48;246.85;;;;;;;;;;5095945;28;20024;-66
2022/09/24 05:07:09;;;;;;;396.27;241.35;;;;;;;;;;5094335;28;20027;-66
2022/09/24 05:09:35;;;;;;;400.88;242.70;;;;;;;;;;5095980;28;20095;-66
2022/09/24 05:12:01;;;;;;;401.70;244.55;;;;;;;;;;5095833;28;20032;-66
2022/09/24 05:14:28;;;;;;;402.67;246.23;;;;;;;;;;5095386;28;20020;-66
2022/09/24 05:16:54;;;;;;;400.15;244.18;;;;;;;;;;5094543;28;20040;-66
2022/09/24 05:19:20;;;;;;;400.08;243.70;;;;;;;;;;5094453;28;20020;-66
2022/09/24 05:21:46;;;;;;;401.00;244.48;;;;;;;;;;5095252;28;20047;-66
2022/09/24 05:24:12;;;;;;;399.83;244.73;;;;;;;;;;5095586;28;20024;-66
2022/09/24 05:29:23;;;;;;;401.60;246.05;;;;;;;;;;5095854;28;20503;-66
2022/09/24 05:31:49;;;;;;;398.52;243.60;;;;;;;;;;5095746;28;20074;-66
2022/09/24 05:34:16;;;;;;;399.77;244.88;;;;;;;;;;5094927;28;20020;-66
2022/09/24 05:36:42;;;;;;;396.00;243.93;;;;;;;;;;5095349;28;20024;-67
2022/09/24 05:39:10;;;;;;;377.88;232.70;;;;;;;;;;5095327;28;20035;-67
2022/09/24 05:41:36;;;;;;;384.13;238.07;;;;;;;;;;5094818;28;20475;-66
2022/09/24 05:44:02;;;;;;;380.83;241.10;;;;;;;;;;5095454;28;20055;-66
2022/09/24 05:46:28;;;;;;;353.35;229.38;;;;;;;;;;5095094;28;20067;-66
2022/09/24 05:48:55;;;;;;;326.17;221.32;;;;;;;;;;5094963;28;20452;-66
2022/09/24 05:51:21;;;;;;;302.90;212.90;;;;;;;;;;5095050;28;20024;-66
2022/09/24 05:53:49;;;;;;;295.77;209.95;;;;;;;;;;5094927;28;20464;-66
2022/09/24 05:56:15;;;;;;;294.98;211.50;;;;;;;;;;5094598;28;20111;-66
2022/09/24 05:58:41;;;;;;;308.67;217.88;;;;;;;;;;5095035;28;20024;-67
2022/09/24 06:01:07;;;;;;;300.48;211.05;;;;;;;;;;5095007;28;20029;-66
2022/09/24 06:03:33;;;;;;;319.27;221.82;;;;;;;;;;5094553;28;20035;-66
2022/09/24 06:06:00;;;;;;;319.27;222.00;;;;;;;;;;5093447;28;20036;-67
2022/09/24 06:08:27;;;;;;;319.17;221.13;;;;;;;;;;5094460;28;20016;-66
2022/09/24 06:10:57;;;;;;;321.92;223.32;;;;;;;;;;5093922;28;20424;-66
2022/09/24 06:13:24;;;;;;;319.48;218.30;;;;;;;;;;5095049;28;20020;-66
2022/09/24 06:15:50;;;;;;;333.38;227.68;;;;;;;;;;5094109;28;20094;-66
2022/09/24 06:18:16;;;;;;;326.73;223.85;;;;;;;;;;5094554;28;20070;-66
2022/09/24 06:20:43;;;;;;;331.02;224.30;;;;;;;;;;5094528;28;20103;-66
2022/09/24 06:23:09;;;;;;;329.13;226.30;;;;;;;;;;5094094;28;20113;-66
2022/09/24 06:25:35;;;;;;;328.38;225.57;;;;;;;;;;5092863;28;20052;-66
2022/09/24 06:28:02;;;;;;;326.48;221.13;;;;;;;;;;5094228;28;20051;-66
2022/09/24 06:30:40;;;;;;;334.38;227.50;;;;;;;;;;5093960;28;20490;-66
2022/09/24 06:33:10;;;;;;;328.63;224.30;;;;;;;;;;5093204;28;20024;-66
2022/09/24 06:35:37;;;;;;;327.33;222.70;;;;;;;;;;5092944;28;20043;-66
2022/09/24 06:38:06;;;;;;;333.38;226.88;;;;;;;;;;5092510;28;20020;-66
2022/09/24 06:40:32;;;;;;;337.08;227.65;;;;;;;;;;5094151;28;20020;-66
2022/09/24 06:42:58;;;;;;;345.88;233.13;;;;;;;;;;5094250;28;20070;-66
2022/09/24 06:45:25;;;;;;;347.48;229.55;;;;;;;;;;5092339;28;20434;-66
2022/09/24 06:47:55;;;;;;;356.08;231.23;;;;;;;;;;5092775;28;20028;-66
2022/09/24 06:50:23;;;;;;;372.13;239.05;;;;;;;;;;5094034;28;20021;-66
2022/09/24 06:52:49;;;;;;;357.40;230.38;;;;;;;;;;5093515;28;20441;-66
2022/09/24 06:55:15;;;;;;;359.63;231.63;;;;;;;;;;5094025;28;20066;-66
2022/09/24 06:57:42;;;;;;;366.25;235.45;;;;;;;;;;5093905;28;20150;-65
2022/09/24 07:00:08;;;;;;;366.88;235.50;;;;;;;;;;5093419;28;20487;-65
2022/09/24 07:02:34;;;;;;;366.70;239.43;;;;;;;;;;5093839;28;20027;-66
2022/09/24 07:05:01;;;;;;;356.25;232.57;;;;;;;;;;5093378;28;20078;-66
2022/09/24 07:07:31;;;;;;;352.80;230.00;;;;;;;;;;5093752;28;20107;-66
2022/09/24 07:09:58;;;;;;;373.48;240.50;;;;;;;;;;5093848;28;20016;-66
2022/09/24 07:12:24;;;;;;;343.25;229.88;;;;;;;;;;5093237;28;20042;-66
2022/09/24 07:14:50;;;;;;;345.48;233.75;;;;;;;;;;5094039;28;20028;-66
2022/09/24 07:17:16;;;;;;;321.63;220.73;;;;;;;;;;5092344;28;20024;-66
2022/09/24 07:19:42;;;;;;;618.10;326.02;;;;;;;;;;5091909;28;20507;-66
2022/09/24 07:22:09;;;;;;;650.17;335.85;;;;;;;;;;5093391;28;20035;-66
2022/09/24 07:24:35;;;;;;;644.40;325.05;;;;;;;;;;5093181;28;20056;-66
2022/09/24 07:27:03;;;;;;;661.47;343.60;;;;;;;;;;5093508;28;20055;-66
2022/09/24 07:29:30;;;;;;;634.15;330.23;;;;;;;;;;5093515;28;20032;-66
2022/09/24 07:31:56;;;;;;;579.22;311.58;;;;;;;;;;5093486;28;20024;-66
2022/09/24 07:34:22;;;;;;;584.97;317.23;;;;;;;;;;5093121;28;20039;-66
2022/09/24 07:36:48;;;;;;;596.63;306.38;;;;;;;;;;5092137;28;20032;-66
2022/09/24 07:39:14;;;;;;;624.88;326.05;;;;;;;;;;5093643;28;20473;-66
2022/09/24 07:41:41;;;;;;;617.58;323.35;;;;;;;;;;5092975;28;20020;-67
2022/09/24 07:44:07;;;;;;;617.78;320.83;;;;;;;;;;5093303;28;20461;-67
2022/09/24 07:46:33;;;;;;;601.38;313.77;;;;;;;;;;5093275;28;20036;-66
2022/09/24 07:49:00;;;;;;;623.40;315.45;;;;;;;;;;5091663;28;20024;-67
2022/09/24 07:51:27;;;;;;;632.85;326.08;;;;;;;;;;5093329;28;20024;-66
2022/09/24 07:54:48;;;;;;;623.08;319.05;;;;;;;;;;5111421;27;20424;-67
2022/09/24 07:58:50;;;;;;;644.63;327.90;;;;;;;;;;5111526;27;20397;-67
2022/09/24 08:03:17;;;;;;;683.13;335.40;;;;;;;;;;5109690;27;20411;-67
2022/09/24 08:05:46;;;;;;;451.75;272.23;;;;;;;;;;5111608;28;20024;-67
2022/09/24 08:08:24;;;;;;;457.55;278.92;;;;;;;;;;5111729;27;20384;-65
2022/09/24 08:13:55;;;;;;;519.25;297.77;;;;;;;;;;5111458;27;20409;-67
2022/09/24 08:16:21;;;;;;;548.33;304.23;;;;;;;;;;5110855;28;20032;-67
2022/09/24 08:18:47;;;;;;;537.72;303.77;;;;;;;;;;5111249;28;20058;-67
2022/09/24 08:21:14;;;;;;;519.65;288.20;;;;;;;;;;5111501;28;20075;-67
2022/09/24 08:23:40;;;;;;;510.35;290.98;;;;;;;;;;5110780;28;20376;-67
2022/09/24 08:26:06;;;;;;;495.70;289.45;;;;;;;;;;5111338;28;20030;-67
2022/09/24 08:28:33;;;;;;;453.85;274.83;;;;;;;;;;5111087;28;20023;-67
2022/09/24 08:31:03;;;;;;;463.42;283.85;;;;;;;;;;5110816;28;20034;-67
2022/09/24 08:33:31;;;;;;;471.75;278.92;;;;;;;;;;5111095;28;20476;-67
2022/09/24 08:36:27;;;;;;;475.25;281.52;;;;;;;;;;5110878;27;20457;-66
2022/09/24 08:39:39;;;;;;;474.02;275.63;;;;;;;;;;5111833;27;20397;-67
2022/09/24 08:48:53;;;;;;;492.42;290.50;;;;;;;;;;5102130;28;20391;-66
2022/09/24 08:52:49;;;;;;;491.60;286.05;;;;;;;;;;5111026;27;20381;-65
2022/09/24 08:55:16;;;;;;;494.13;288.23;;;;;;;;;;5111449;28;20020;-65
2022/09/24 08:57:50;;;;;;;512.85;296.02;;;;;;;;;;5110859;28;20044;-65
2022/09/24 09:01:07;;;;;;;482.33;287.08;;;;;;;;;;5111783;27;20380;-67
2022/09/24 09:07:31;;;;;;;552.92;302.77;;;;;;;;;;5111667;27;20397;-67
2022/09/24 09:10:03;;;;;;;546.05;304.45;;;;;;;;;;5111129;28;20035;-66
2022/09/24 09:12:44;;;;;;;484.73;290.52;;;;;;;;;;5111062;28;20027;-66
2022/09/24 09:19:04;;;;;;;493.10;292.65;;;;;;;;;;5111266;27;20405;-67
2022/09/24 09:21:31;;;;;;;479.65;287.67;;;;;;;;;;5111926;28;20032;-67
2022/09/24 09:24:19;;;;;;;484.75;285.25;;;;;;;;;;5111281;27;20306;-66
2022/09/24 09:26:53;;;;;;;492.40;292.45;;;;;;;;;;5089296;28;20438;-67
2022/09/24 09:31:06;;;;;;;502.90;297.40;;;;;;;;;;5111818;27;21096;-68
2022/09/24 09:33:42;;;;;;;536.30;301.20;;;;;;;;;;5109586;28;20020;-66
2022/09/24 09:38:30;;;;;;;566.95;305.33;;;;;;;;;;5070863;28;20458;-67
2022/09/24 09:41:02;;;;;;;503.02;292.40;;;;;;;;;;5070458;28;20100;-66
2022/09/24 09:43:29;;;;;;;524.85;301.55;;;;;;;;;;5069545;28;20492;-67
2022/09/24 09:46:14;;;;;;;538.95;305.17;;;;;;;;;;5070534;28;20423;-67
2022/09/24 09:49:01;;;;;;;716.83;338.45;;;;;;;;;;5068895;28;20874;-66
2022/09/24 09:51:30;;;;;;;602.22;312.25;;;;;;;;;;5069487;28;20480;-67
2022/09/24 09:53:56;;;;;;;544.72;305.10;;;;;;;;;;5068981;28;20056;-67
2022/09/24 10:00:48;;;;;;;500.52;289.02;;;;;;;;;;5112065;27;20400;-67
2022/09/24 10:03:21;;;;;;;497.85;286.40;;;;;;;;;;5093247;28;20122;-65
2022/09/24 10:07:53;;;;;;;428.52;272.95;;;;;;;;;;5111128;27;20422;-68
2022/09/24 10:10:22;;;;;;;394.40;259.25;;;;;;;;;;5111292;28;20077;-65
2022/09/24 10:14:42;;;;;;;421.63;267.95;;;;;;;;;;5111486;27;20446;-66
2022/09/24 10:21:56;;;;;;;974.33;512.47;;;;;;;;;;5111419;27;20927;-66
2022/09/24 10:24:24;;;;;;;903.53;534.55;;;;;;;;;;5111195;28;20033;-67
2022/09/24 10:26:50;;;;;;;866.45;543.85;;;;;;;;;;5111294;28;20102;-66
2022/09/24 10:30:35;;;;;;;821.30;542.83;;;;;;;;;;5111258;27;20915;-67
2022/09/24 10:33:05;;;;;;;808.03;554.67;;;;;;;;;;5110081;28;20336;-65
2022/09/24 10:35:37;;;;;;;758.97;532.50;;;;;;;;;;5111378;28;20466;-66
2022/09/24 10:44:16;;;;;;;715.97;450.23;;;;;;;;;;5110996;27;20397;-66
2022/09/24 10:46:48;;;;;;;720.90;472.55;;;;;;;;;;5111289;28;20489;-65
2022/09/24 10:49:21;;;;;;;713.45;439.80;;;;;;;;;;5111217;28;20433;-68
2022/09/24 10:55:38;;;;;;;691.72;413.13;;;;;;;;;;5111976;27;20418;-67
2022/09/24 10:58:24;;;;;;;710.63;440.75;;;;;;;;;;5110788;28;20031;-67
2022/09/24 11:01:09;;;;;;;706.78;440.50;;;;;;;;;;5111504;28;20077;-69
2022/09/24 11:03:41;;;;;;;695.67;443.00;;;;;;;;;;5109914;28;20015;-67
2022/09/24 11:06:14;;;;;;;689.88;444.30;;;;;;;;;;5110742;28;20031;-67
2022/09/24 11:10:17;;;;;;;671.10;444.05;;;;;;;;;;5111685;27;20401;-66
2022/09/24 11:12:49;;;;;;;670.85;446.02;;;;;;;;;;5110979;28;20024;-66
2022/09/24 11:16:50;;;;;;;598.75;419.60;;;;;;;;;;5111728;27;20800;-66
2022/09/24 11:19:17;;;;;;;608.30;418.88;;;;;;;;;;5110836;28;20027;-66
2022/09/24 11:21:46;;;;;;;634.00;422.85;;;;;;;;;;5109755;28;20031;-66
2022/09/24 11:24:37;;;;;;;657.55;430.48;;;;;;;;;;5111636;27;20903;-66
2022/09/24 11:27:34;;;;;;;665.38;411.40;;;;;;;;;;5112021;27;20714;-66
2022/09/24 11:30:00;;;;;;;650.00;427.58;;;;;;;;;;5111190;28;20052;-66
2022/09/24 11:32:26;;;;;;;646.80;420.50;;;;;;;;;;5110741;28;20035;-65
2022/09/24 11:35:11;;;;;;;639.22;431.35;;;;;;;;;;5109894;28;20031;-66
2022/09/24 11:37:55;;;;;;;648.97;427.95;;;;;;;;;;5109864;28;20031;-66
2022/09/24 11:40:28;;;;;;;663.85;435.02;;;;;;;;;;5110903;28;20024;-66
2022/09/24 11:44:45;;;;;;;672.22;434.75;;;;;;;;;;5111434;27;20385;-66
2022/09/24 11:50:08;;;;;;;719.88;541.78;;;;;;;;;;5111554;27;20397;-66
2022/09/24 11:52:37;;;;;;;710.92;554.08;;;;;;;;;;5111327;28;20028;-67
2022/09/24 11:55:55;;;;;;;723.88;578.08;;;;;;;;;;5091061;27;20409;-66
2022/09/24 11:58:38;;;;;;;714.95;597.35;;;;;;;;;;5072804;28;20111;-67
2022/09/24 12:01:05;;;;;;;;;;;;;;;;;;5091318;28;20017;-66
2022/09/24 12:03:38;;;;;;;718.55;597.38;;;;;;;;;;5090839;28;19904;-66
2022/09/24 12:08:11;;;;;;;760.42;592.45;;;;;;;;;;5111066;27;20328;-66
2022/09/24 12:12:20;;;;;;;755.75;617.33;;;;;;;;;;5112071;27;20393;-66
2022/09/24 12:14:52;;;;;;;745.80;615.30;;;;;;;;;;5109544;28;20020;-66
2022/09/24 12:17:23;;;;;;;746.72;598.88;;;;;;;;;;5109999;28;20115;-66
2022/09/24 12:19:53;;;;;;;754.10;599.53;;;;;;;;;;5110002;28;20032;-66
2022/09/24 12:22:20;;;;;;;779.72;688.63;;;;;;;;;;5110965;28;20496;-66
2022/09/24 12:24:50;;;;;;;783.17;671.60;;;;;;;;;;5111648;28;20042;-66
2022/09/24 12:27:19;;;;;;;25.23;11.38;;;;;;;;;;5111388;28;20027;-66
2022/09/24 12:32:53;;;;;;;2.65;1.88;;;;;;;;;;5110975;28;20058;-66
2022/09/24 12:35:22;;;;;;;2.65;1.40;;;;;;;;;;5111284;28;20420;-66
2022/09/24 12:37:50;;;;;;;4.82;2.15;;;;;;;;;;5110446;28;20097;-66
2022/09/24 12:40:35;;;;;;;4.03;2.40;;;;;;;;;;5109536;28;20027;-67
2022/09/24 12:43:04;;;;;;;3.67;1.85;;;;;;;;;;5110245;28;20020;-67
2022/09/24 12:45:30;;;;;;;2.97;1.60;;;;;;;;;;5110742;28;20024;-67
2022/09/24 12:47:59;;;;;;;2.58;1.55;;;;;;;;;;5110630;28;20024;-66
2022/09/24 12:50:27;;;;;;;2.15;1.45;;;;;;;;;;5110209;28;20036;-66
2022/09/24 12:52:54;;;;;;;3.13;1.65;;;;;;;;;;5109283;28;20027;-66
2022/09/24 12:55:24;;;;;;;3.03;1.75;;;;;;;;;;5110576;28;20361;-66
2022/09/24 12:57:53;;;;;;;3.63;1.60;;;;;;;;;;5110126;28;20091;-67
2022/09/24 13:00:32;;;;;;;4.68;2.15;;;;;;;;;;5110421;28;20077;-66
2022/09/24 13:02:59;;;;;;;6.72;1.75;;;;;;;;;;5109011;28;20027;-66
2022/09/24 13:05:26;;;;;;;2.15;1.38;;;;;;;;;;5109930;28;20081;-66
2022/09/24 13:07:55;;;;;;;3.67;1.50;;;;;;;;;;5110287;28;20062;-66
2022/09/24 13:10:23;;;;;;;3.35;1.90;;;;;;;;;;5109921;28;20048;-66
2022/09/24 13:12:49;;;;;;;4.18;1.80;;;;;;;;;;5109809;28;20020;-67
2022/09/24 13:15:36;;;;;;;3.90;1.88;;;;;;;;;;5110192;28;20109;-67
2022/09/24 13:18:05;;;;;;;2.47;1.67;;;;;;;;;;5109536;28;20031;-67
2022/09/24 13:20:32;;;;;;;3.47;1.63;;;;;;;;;;5110165;28;20027;-67
2022/09/24 13:23:14;;;;;;;2.58;1.50;;;;;;;;;;5098821;28;20069;-66
2022/09/24 13:25:40;;;;;;;4.43;1.47;;;;;;;;;;5096191;28;20038;-66
2022/09/24 13:28:42;;;;;;;2.67;1.40;;;;;;;;;;5096503;28;20024;-67
2022/09/24 13:31:17;;;;;;;3.53;1.67;;;;;;;;;;5034173;28;20041;-67
2022/09/24 13:33:44;;;;;;;2.88;1.30;;;;;;;;;;5087345;28;20036;-67
2022/09/24 13:36:18;;;;;;;6.68;2.83;;;;;;;;;;5096284;28;20016;-67
2022/09/24 13:38:49;;;;;;;7.60;4.25;;;;;;;;;;5095940;28;20047;-66
2022/09/24 13:41:33;;;;;;;4.25;2.38;;;;;;;;;;5096086;28;20024;-67
2022/09/24 13:44:02;;;;;;;3.00;1.80;;;;;;;;;;5095990;28;20028;-67
2022/09/24 13:46:29;;;;;;;3.67;1.80;;;;;;;;;;5095536;28;20020;-67
2022/09/24 13:48:57;;;;;;;2.22;1.27;;;;;;;;;;5095925;28;20020;-67
2022/09/24 13:51:26;;;;;;;2.72;1.50;;;;;;;;;;5095960;28;20036;-67
2022/09/24 13:53:52;;;;;;;3.50;1.30;;;;;;;;;;5095419;28;20024;-66
2022/09/24 13:56:19;;;;;;;2.90;1.52;;;;;;;;;;5095849;28;20024;-66
2022/09/24 13:58:45;;;;;;;3.03;1.58;;;;;;;;;;5095814;28;20024;-67
2022/09/24 14:01:17;;;;;;;2.17;1.17;;;;;;;;;;5095520;28;20027;-67
2022/09/24 14:03:51;;;;;;;2.88;1.48;;;;;;;;;;5094414;28;20042;-67
2022/09/24 14:06:21;;;;;;;2.63;1.08;;;;;;;;;;5094375;28;20029;-66
2022/09/24 14:08:47;;;;;;;1.70;1.05;;;;;;;;;;5095161;28;20492;-67
2022/09/24 14:11:23;;;;;;;2.03;1.48;;;;;;;;;;5095312;28;20097;-66
2022/09/24 14:13:50;;;;;;;1.63;1.17;;;;;;;;;;5094103;28;20028;-66
2022/09/24 14:16:17;;;;;;;3.60;1.55;;;;;;;;;;5094936;28;20449;-66
2022/09/24 14:18:43;;;;;;;2.10;1.30;;;;;;;;;;5095444;28;20050;-67
2022/09/24 14:21:16;;;;;;;2.65;1.25;;;;;;;;;;5093615;28;20024;-67
2022/09/24 14:23:42;;;;;;;2.17;1.30;;;;;;;;;;5095187;28;20034;-67
2022/09/24 14:26:12;;;;;;;1.95;1.20;;;;;;;;;;5095274;28;20559;-67
2022/09/24 14:28:38;;;;;;;1.85;1.20;;;;;;;;;;5095108;28;20085;-67
2022/09/24 14:31:07;;;;;;;3.63;1.23;;;;;;;;;;5095060;28;20040;-68
2022/09/24 14:33:33;;;;;;;3.03;1.77;;;;;;;;;;5094347;28;20063;-67
2022/09/24 14:36:00;;;;;;;2.70;1.40;;;;;;;;;;5094614;28;20024;-70
2022/09/24 14:38:28;;;;;;;6.05;1.60;;;;;;;;;;5095116;28;20050;-67
2022/09/24 14:41:01;;;;;;;2.95;1.40;;;;;;;;;;5095232;28;20024;-66
2022/09/24 14:43:31;;;;;;;3.67;2.17;;;;;;;;;;5094565;28;20012;-66
2022/09/24 14:46:06;;;;;;;3.13;1.55;;;;;;;;;;5094881;28;20028;-66
2022/09/24 14:48:33;;;;;;;2.15;1.40;;;;;;;;;;5095154;28;20399;-66
2022/09/24 14:51:00;;;;;;;2.53;1.60;;;;;;;;;;5094319;28;20093;-66
2022/09/24 14:53:28;;;;;;;2.08;1.40;;;;;;;;;;5093352;28;20020;-66
2022/09/24 14:55:54;;;;;;;3.30;1.50;;;;;;;;;;5093269;28;20115;-66
2022/09/24 14:58:35;;;;;;;3.30;1.30;;;;;;;;;;5094131;28;20041;-66
2022/09/24 15:01:04;;;;;;;8.93;1.80;;;;;;;;;;5095085;28;20028;-66
2022/09/24 15:03:39;;;;;;;2.85;1.60;;;;;;;;;;5094178;28;20020;-67
2022/09/24 15:06:25;;;;;;;4.00;2.05;;;;;;;;;;5093147;28;20020;-66
2022/09/24 15:08:59;;;;;;;3.70;1.85;;;;;;;;;;5094305;28;20062;-68
2022/09/24 15:11:26;;;;;;;2.25;1.55;;;;;;;;;;5093770;28;20052;-66
2022/09/24 15:14:12;;;;;;;4.43;1.70;;;;;;;;;;5093054;28;20024;-66
2022/09/24 15:16:38;;;;;;;4.20;1.95;;;;;;;;;;5094676;28;20027;-66
2022/09/24 15:19:07;;;;;;;1.98;1.30;;;;;;;;;;5093978;28;20080;-66
2022/09/24 15:21:33;;;;;;;3.17;1.80;;;;;;;;;;5094260;28;20020;-66
2022/09/24 15:24:00;;;;;;;3.65;1.40;;;;;;;;;;5092836;28;20491;-67
2022/09/24 15:26:28;;;;;;;4.55;1.60;;;;;;;;;;5093986;28;20028;-66
2022/09/24 15:28:55;;;;;;;3.83;1.38;;;;;;;;;;5094395;28;20069;-66
2022/09/24 15:31:21;;;;;;;2.47;1.70;;;;;;;;;;5092279;28;20032;-66